Aérodrome :
LOGIN :

S'inscrire | Disclaimer

   EN    FR    IT 

 










Légende :    VFR   VFR Marginal   IFR   IFR Intensif   IFR Très Intensif
Visi : 
Plafond : 
>= 8 km
>= 3000ft
5 à 8 km
1000 à 3000 ft
1500m à 5 km
500 à 1000 ft
800 à 1500m
200 à 500 ft
< 800m
< 200 ft
Symboles :   Orages  Brouillard  Fortes neiges  Fortes précipitations  Vent > 20 kt
SIGMETs :   Divers  Orages  Givrage  Turbulence  Onde Orograph.  Cendres Volcan.







- Altitude de l'aérodrome : 20 ft


EBFN - Koksijde

DERNIER METAR :
  • 272355Z AUTO 23009KT 9999 FEW080/// 14/12 Q1009 BLU

METARs EXPIRÉS :
  • 272325Z AUTO 23008KT 9999 NCD 14/12 Q1009 BLU
  • 272255Z AUTO 23007KT 9999 NCD 14/12 Q1009 BLU
  • 272225Z AUTO 23007KT 9999 NCD 14/12 Q1009 BLU
  • 272155Z AUTO 23008KT 9999 NCD 15/12 Q1009 BLU
  • 272125Z AUTO 23009KT 9999 FEW021/// 15/12 Q1009 BLU

TAF TAF EBFN
Valide du 27 à 19h jusqu'au 28 à 07h UTC


271541Z 2719/2807 24015G25KT 9999 FEW030 SCT040
BECMG 2719/2721 FEW015 SCT018 BKN025
TEMPO 2719/2807 6000 -SHRA SCT015TCU BKN020
Pas de NOTAMs connus pour ce terrain.



MET'MAP, la Météo Aéronautique d'un coup d'oeil ! - Copyright ORBIFLY Décembre 2007 - Disclaimer

ORBIFLY MET'MAP TEAM :

Programmation & Développement : Alexandra Zaïnal
Conception & Développement : Baudouin d'Aumeries
Co-Programmation & Développement : Marc-Olivier Méhu
Soutien technique & logistique : Manuel Goepfert

Contact : metmap@orbifly.com




SOURCES & CREDITS :

   NOAA